Time;durP1;ratioP1;P1;durP2;ratioP2;P2;SDS_P1;SDS_P2;PMS_P1;PMS_P2;Temp;Humidity;BMP_temperature;BMP_pressure;BME280_temperature;BME280_humidity;BME280_pressure;Samples;Min_cycle;Max_cycle;Signal;HPM_P1;HPM_P2
2023/02/18 00:01:57;;;;;;;40.70;18.90;;;;;;;7.11;72.29;99366.90;106700;1283;22617;-78
2023/02/18 00:04:26;;;;;;;38.80;18.00;;;;;;;7.10;72.47;99367.24;106767;1283;24187;-78
2023/02/18 00:06:54;;;;;;;34.50;16.80;;;;;;;7.09;72.59;99372.77;106765;1283;24276;-79
2023/02/18 00:09:22;;;;;;;47.70;19.70;;;;;;;7.10;72.68;99376.38;106738;1281;22982;-78
2023/02/18 00:11:54;;;;;;;35.80;19.10;;;;;;;7.14;72.84;99371.70;108103;1283;22661;-78
2023/02/18 00:14:22;;;;;;;38.60;17.80;;;;;;;7.20;72.62;99379.23;109105;1283;23171;-80
2023/02/18 00:16:50;;;;;;;34.70;17.30;;;;;;;7.24;72.48;99393.35;108207;1283;25956;-79
2023/02/18 00:19:19;;;;;;;35.50;16.90;;;;;;;7.33;72.22;99405.02;106817;1272;25294;-78
2023/02/18 00:21:48;;;;;;;29.50;14.70;;;;;;;7.50;71.70;99409.89;106819;1283;22546;-78
2023/02/18 00:24:16;;;;;;;30.30;14.60;;;;;;;7.69;71.16;99405.27;106824;1283;22494;-79
2023/02/18 00:26:45;;;;;;;28.90;14.10;;;;;;;8.03;69.72;99393.73;106742;1278;25349;-78
2023/02/18 00:29:13;;;;;;;32.20;13.80;;;;;;;8.38;68.53;99399.77;106813;1283;24224;-79
2023/02/18 00:31:42;;;;;;;25.10;12.70;;;;;;;8.69;67.26;99404.77;106677;1284;24237;-78
2023/02/18 00:34:12;;;;;;;26.30;12.90;;;;;;;8.89;66.77;99404.51;109793;1283;22206;-79
2023/02/18 00:36:41;;;;;;;26.00;13.00;;;;;;;9.05;66.08;99389.94;109806;1283;22522;-79
2023/02/18 00:39:10;;;;;;;26.10;13.10;;;;;;;9.20;65.28;99382.98;109771;1281;22223;-79
2023/02/18 00:41:40;;;;;;;27.60;13.70;;;;;;;9.30;65.16;99362.92;109797;1273;22405;-79
2023/02/18 00:44:10;;;;;;;26.80;13.30;;;;;;;9.43;64.07;99378.83;108053;1283;22658;-79
2023/02/18 00:46:39;;;;;;;26.00;12.60;;;;;;;9.54;63.49;99381.77;106814;1283;22588;-79
2023/02/18 00:49:08;;;;;;;28.40;13.70;;;;;;;9.58;63.22;99382.23;106787;1283;23095;-78
2023/02/18 00:51:39;;;;;;;26.00;12.20;;;;;;;9.57;63.00;99366.31;106730;1267;23155;-79
2023/02/18 00:54:07;;;;;;;28.20;12.50;;;;;;;9.56;63.15;99362.70;106704;1283;24978;-78
2023/02/18 00:56:36;;;;;;;25.90;13.20;;;;;;;9.54;63.15;99359.77;106807;1274;22532;-78
2023/02/18 00:59:07;;;;;;;27.30;13.40;;;;;;;9.54;62.98;99361.17;106759;1278;22746;-78
2023/02/18 01:01:35;;;;;;;36.30;13.20;;;;;;;9.48;62.87;99356.42;106792;1282;22529;-80
2023/02/18 01:04:04;;;;;;;29.20;13.90;;;;;;;9.47;62.85;99346.41;106783;1278;24243;-78
2023/02/18 01:06:35;;;;;;;29.30;14.50;;;;;;;9.37;62.87;99344.13;106805;1283;23207;-79
2023/02/18 01:09:04;;;;;;;27.70;14.80;;;;;;;9.22;63.12;99347.15;106800;1281;22572;-79
2023/02/18 01:11:33;;;;;;;31.30;14.70;;;;;;;9.16;63.41;99345.69;106803;1283;23431;-78
2023/02/18 01:14:02;;;;;;;32.10;14.10;;;;;;;9.07;63.66;99341.84;106792;1274;24292;-79
2023/02/18 01:16:31;;;;;;;29.20;15.40;;;;;;;8.95;64.12;99346.53;106720;1283;24320;-79
2023/02/18 01:18:59;;;;;;;31.60;14.80;;;;;;;8.84;64.28;99346.33;106835;1283;22668;-78
2023/02/18 01:21:27;;;;;;;29.00;14.70;;;;;;;8.75;64.64;99344.89;106843;1283;22530;-79
2023/02/18 01:23:57;;;;;;;29.60;14.10;;;;;;;8.69;65.01;99330.11;106872;1283;24376;-78
2023/02/18 01:26:28;;;;;;;33.80;14.90;;;;;;;8.61;65.24;99325.39;106707;1283;23819;-78
2023/02/18 01:28:59;;;;;;;27.20;13.90;;;;;;;8.54;65.57;99328.92;106742;1283;22659;-78
2023/02/18 01:31:28;;;;;;;26.80;13.10;;;;;;;8.56;65.73;99331.33;106724;1284;22532;-79
2023/02/18 01:34:02;;;;;;;25.90;13.70;;;;;;;8.56;65.82;99316.30;106802;1274;22492;-78
2023/02/18 01:36:30;;;;;;;26.10;13.50;;;;;;;8.56;65.81;99314.22;106795;1283;25416;-78
2023/02/18 01:38:58;;;;;;;27.40;13.40;;;;;;;8.55;65.91;99314.23;106773;1277;22562;-78
2023/02/18 01:41:29;;;;;;;27.80;12.50;;;;;;;8.59;65.88;99312.98;106809;1284;22935;-78
2023/02/18 01:44:18;;;;;;;25.60;13.20;;;;;;;8.61;65.86;99314.67;106756;1283;22647;-79
2023/02/18 01:46:48;;;;;;;26.80;12.90;;;;;;;8.59;66.01;99313.50;106732;1283;23365;-78
2023/02/18 01:49:36;;;;;;;26.10;12.50;;;;;;;8.56;66.06;99310.41;107449;1283;22531;-79
2023/02/18 01:52:17;;;;;;;28.80;14.70;;;;;;;8.54;66.15;99307.50;106922;1283;24383;-78
2023/02/18 01:54:55;;;;;;;28.30;14.20;;;;;;;8.50;66.26;99303.24;107499;1281;23374;-79
2023/02/18 01:57:28;;;;;;;27.00;13.80;;;;;;;8.44;66.49;99296.08;106913;1284;22562;-78
2023/02/18 02:00:05;;;;;;;25.00;13.20;;;;;;;8.42;66.54;99290.40;106820;1278;23301;-78
2023/02/18 02:02:45;;;;;;;26.60;13.70;;;;;;;8.42;66.54;99284.34;107696;1278;22622;-79
2023/02/18 02:05:15;;;;;;;29.30;12.70;;;;;;;8.46;66.55;99279.80;106784;1277;22742;-81
2023/02/18 02:07:45;;;;;;;29.50;14.10;;;;;;;8.49;66.39;99286.34;106692;1277;22549;-80
2023/02/18 02:10:15;;;;;;;34.40;15.60;;;;;;;8.43;66.58;99293.83;106691;1281;22555;-79
2023/02/18 02:13:03;;;;;;;31.40;15.30;;;;;;;8.40;66.76;99284.35;107970;1283;25404;-78
2023/02/18 02:16:00;;;;;;;24.70;12.30;;;;;;;8.41;66.88;99279.70;106863;1278;22540;-78
2023/02/18 02:19:09;;;;;;;24.70;12.10;;;;;;;8.54;67.01;99269.85;106810;1274;22722;-78
2023/02/18 02:21:52;;;;;;;22.40;11.40;;;;;;;8.70;66.80;99263.91;106695;1284;26028;-78
2023/02/18 02:25:20;;;;;;;20.70;11.10;;;;;;;8.83;66.61;99270.64;106302;1284;618934;-81
2023/02/18 02:28:37;;;;;;;23.10;10.80;;;;;;;9.01;66.43;99254.81;106719;1280;23906;-79
2023/02/18 02:31:36;;;;;;;21.50;11.00;;;;;;;9.18;66.24;99245.55;106780;1284;25322;-80
2023/02/18 02:34:39;;;;;;;21.10;9.80;;;;;;;9.26;66.07;99250.06;107409;1284;22608;-78
2023/02/18 02:37:24;;;;;;;21.00;10.60;;;;;;;9.34;65.82;99228.64;106750;1283;27436;-78
2023/02/18 02:40:17;;;;;;;21.70;11.30;;;;;;;9.37;65.63;99232.05;106762;1283;22605;-78
2023/02/18 02:43:11;;;;;;;21.50;10.80;;;;;;;9.38;65.72;99233.25;106669;1276;23354;-78
2023/02/18 02:46:09;;;;;;;19.60;10.50;;;;;;;9.40;65.53;99243.60;106634;1283;22742;-78
2023/02/18 02:48:59;;;;;;;21.90;10.30;;;;;;;9.46;65.51;99244.86;106689;1281;25648;-79
2023/02/18 02:51:34;;;;;;;21.10;10.10;;;;;;;9.48;65.30;99234.98;106624;1279;22746;-79
2023/02/18 02:54:14;;;;;;;20.30;11.00;;;;;;;9.51;65.29;99237.17;106680;1284;22589;-80
2023/02/18 02:56:51;;;;;;;21.50;10.20;;;;;;;9.53;65.27;99235.05;106782;1277;24370;-79
2023/02/18 02:59:31;;;;;;;20.50;9.80;;;;;;;9.52;65.35;99231.60;106706;1284;22607;-79
2023/02/18 03:02:58;;;;;;;19.30;10.30;;;;;;;9.52;65.40;99238.35;106727;1284;25574;-79
2023/02/18 03:06:13;;;;;;;20.80;11.00;;;;;;;9.48;65.64;99229.08;106659;1283;24257;-79
2023/02/18 03:09:42;;;;;;;19.60;9.80;;;;;;;9.49;65.95;99220.92;106730;1277;22526;-78
2023/02/18 03:12:36;;;;;;;24.10;10.00;;;;;;;9.49;66.43;99206.58;106839;1284;22531;-78
2023/02/18 03:15:17;;;;;;;22.20;10.10;;;;;;;9.47;66.70;99218.38;106748;1283;22666;-79
2023/02/18 03:17:59;;;;;;;21.80;10.60;;;;;;;9.48;66.72;99209.36;106792;1284;22665;-78
2023/02/18 03:20:35;;;;;;;18.30;9.50;;;;;;;9.47;66.91;99204.55;107240;1283;22948;-78
2023/02/18 03:23:12;;;;;;;22.00;9.70;;;;;;;9.45;67.28;99193.86;106841;1283;23387;-79
2023/02/18 03:25:44;;;;;;;17.20;8.50;;;;;;;9.44;67.85;99173.98;106680;1284;22685;-79
2023/02/18 03:28:18;;;;;;;15.20;7.90;;;;;;;9.46;68.24;99173.23;106871;1283;22670;-79
2023/02/18 03:30:57;;;;;;;21.10;10.60;;;;;;;9.46;68.52;99200.92;106720;1276;25236;-80
2023/02/18 03:33:32;;;;;;;16.00;9.20;;;;;;;9.46;68.54;99218.73;106863;1283;22652;-79
2023/02/18 03:36:01;;;;;;;17.50;9.70;;;;;;;9.47;68.67;99213.17;107905;1284;22625;-78
2023/02/18 03:38:42;;;;;;;20.00;9.50;;;;;;;9.51;68.56;99204.11;106746;1284;22555;-78
2023/02/18 03:41:13;;;;;;;20.70;10.80;;;;;;;9.53;68.53;99219.30;106768;1281;22543;-79
2023/02/18 03:43:54;;;;;;;17.50;9.70;;;;;;;9.51;68.61;99226.95;106758;1283;22533;-78
2023/02/18 03:46:22;;;;;;;23.00;10.40;;;;;;;9.52;68.57;99233.35;106796;1283;23929;-79
2023/02/18 03:48:51;;;;;;;19.30;9.60;;;;;;;9.51;68.70;99244.77;106733;1281;25193;-78
2023/02/18 03:51:22;;;;;;;20.80;10.40;;;;;;;9.48;68.96;99237.74;106700;1283;25227;-79
2023/02/18 03:53:51;;;;;;;19.10;10.10;;;;;;;9.47;68.84;99232.91;106893;1283;22544;-78
2023/02/18 03:56:23;;;;;;;18.60;9.20;;;;;;;9.47;68.97;99235.34;106780;1283;22649;-78
2023/02/18 03:58:51;;;;;;;18.70;9.90;;;;;;;9.47;69.10;99247.27;106728;1263;22562;-78
2023/02/18 04:01:22;;;;;;;32.20;10.30;;;;;;;9.48;69.30;99253.64;106822;1283;22718;-79
2023/02/18 04:03:50;;;;;;;18.30;9.80;;;;;;;9.49;69.36;99256.73;106878;1283;22742;-80
2023/02/18 04:06:19;;;;;;;21.40;10.30;;;;;;;9.51;69.45;99243.22;106884;1276;23195;-78
2023/02/18 04:08:48;;;;;;;20.50;9.50;;;;;;;9.53;69.07;99232.48;106828;1283;22535;-79
2023/02/18 04:11:16;;;;;;;21.50;9.90;;;;;;;9.52;68.87;99225.90;106834;1283;23165;-78
2023/02/18 04:13:45;;;;;;;23.70;10.10;;;;;;;9.52;68.72;99222.95;106729;1283;22577;-78
2023/02/18 04:16:16;;;;;;;19.00;9.80;;;;;;;9.50;68.58;99221.61;106784;1283;22725;-78
2023/02/18 04:18:44;;;;;;;21.50;10.00;;;;;;;9.44;68.54;99232.10;106819;1278;26762;-79
2023/02/18 04:21:13;;;;;;;18.90;10.30;;;;;;;9.40;68.60;99239.61;107008;1283;22660;-79
2023/02/18 04:23:41;;;;;;;22.10;10.10;;;;;;;9.40;68.59;99236.34;106848;1276;22538;-78
2023/02/18 04:26:10;;;;;;;19.20;11.00;;;;;;;9.37;68.63;99234.65;106893;1283;22718;-77
2023/02/18 04:28:38;;;;;;;18.90;9.50;;;;;;;9.35;68.77;99230.18;106864;1284;24408;-81
2023/02/18 04:31:10;;;;;;;23.00;11.60;;;;;;;9.30;68.93;99231.48;106797;1283;22552;-80
2023/02/18 04:33:41;;;;;;;23.10;9.60;;;;;;;9.28;68.91;99225.47;106852;1281;27489;-78
2023/02/18 04:36:09;;;;;;;19.50;9.50;;;;;;;9.29;68.78;99227.16;106825;1283;22706;-79
2023/02/18 04:38:38;;;;;;;19.50;10.10;;;;;;;9.31;68.93;99218.84;106859;1283;25373;-79
2023/02/18 04:41:07;;;;;;;21.50;10.90;;;;;;;9.33;68.63;99229.18;106883;1281;24222;-81
2023/02/18 04:43:36;;;;;;;19.80;10.30;;;;;;;9.34;68.36;99227.25;106730;1281;22654;-78
2023/02/18 04:46:04;;;;;;;26.20;11.70;;;;;;;9.37;68.17;99231.35;106829;1282;24268;-78
2023/02/18 04:48:33;;;;;;;20.30;10.70;;;;;;;9.40;67.99;99229.75;106847;1277;25277;-81
2023/02/18 04:51:02;;;;;;;23.40;11.50;;;;;;;9.41;67.77;99235.44;106788;1281;22642;-79
2023/02/18 04:53:31;;;;;;;23.50;11.50;;;;;;;9.41;67.90;99233.20;107030;1283;22841;-80
2023/02/18 04:56:00;;;;;;;23.30;11.20;;;;;;;9.39;67.87;99230.83;107094;1283;22536;-79
2023/02/18 04:58:28;;;;;;;21.80;10.70;;;;;;;9.37;67.95;99232.92;107020;1276;25366;-79
2023/02/18 05:01:03;;;;;;;27.90;11.30;;;;;;;9.37;67.83;99239.33;106939;1283;24293;-78
2023/02/18 05:03:32;;;;;;;25.70;12.20;;;;;;;9.38;67.62;99233.25;106838;1283;22734;-79
2023/02/18 05:06:00;;;;;;;28.40;12.20;;;;;;;9.38;67.59;99235.67;106797;1283;23156;-79
2023/02/18 05:08:28;;;;;;;23.20;11.20;;;;;;;9.36;67.64;99240.21;108175;1283;22858;-79
2023/02/18 05:10:57;;;;;;;25.10;12.20;;;;;;;9.31;67.80;99241.50;109167;1278;22341;-79
2023/02/18 05:13:25;;;;;;;26.80;12.60;;;;;;;9.30;67.80;99242.73;108469;1283;25642;-81
2023/02/18 05:15:54;;;;;;;25.40;11.30;;;;;;;9.28;67.85;99238.44;107104;1283;22694;-79
2023/02/18 05:18:25;;;;;;;23.70;11.70;;;;;;;9.26;67.95;99236.41;106845;1281;22545;-79
2023/02/18 05:20:54;;;;;;;24.50;11.60;;;;;;;9.20;67.99;99243.25;106833;1283;24372;-79
2023/02/18 05:23:23;;;;;;;24.70;12.20;;;;;;;9.19;68.03;99240.16;106816;1283;22614;-79
2023/02/18 05:25:56;;;;;;;27.50;12.30;;;;;;;9.17;67.99;99251.42;106899;1283;22502;-79
2023/02/18 05:28:24;;;;;;;19.20;9.20;;;;;;;9.10;68.24;99252.94;106743;1281;22727;-79
2023/02/18 05:30:53;;;;;;;21.60;10.70;;;;;;;9.07;68.46;99262.48;106842;1283;25589;-79
2023/02/18 05:33:22;;;;;;;24.20;11.10;;;;;;;9.05;68.61;99260.44;106818;1284;22670;-79
2023/02/18 05:35:50;;;;;;;25.80;12.10;;;;;;;9.01;68.84;99266.73;106777;1283;24381;-79
2023/02/18 05:38:18;;;;;;;23.80;12.40;;;;;;;9.00;69.11;99275.90;106817;1281;22565;-79
2023/02/18 05:40:49;;;;;;;25.20;12.80;;;;;;;8.96;69.05;99277.88;106811;1283;22539;-79
2023/02/18 05:43:17;;;;;;;23.00;11.80;;;;;;;8.91;69.07;99281.06;106902;1283;23145;-78
2023/02/18 05:45:46;;;;;;;23.50;12.10;;;;;;;8.85;69.30;99280.11;106940;1283;27615;-78
2023/02/18 05:48:17;;;;;;;29.10;12.60;;;;;;;8.81;69.64;99279.84;106897;1280;26710;-79
2023/02/18 05:50:52;;;;;;;35.90;13.60;;;;;;;8.77;69.86;99280.23;106850;1284;22801;-79
2023/02/18 05:53:26;;;;;;;24.60;12.50;;;;;;;8.72;70.00;99278.75;106736;1281;24272;-78
2023/02/18 05:55:55;;;;;;;24.90;12.20;;;;;;;8.68;70.25;99276.91;106820;1283;26547;-78
2023/02/18 05:58:26;;;;;;;28.00;12.50;;;;;;;8.65;70.39;99292.16;107229;1281;22706;-79
2023/02/18 06:00:59;;;;;;;24.70;12.10;;;;;;;8.61;70.54;99293.42;106722;1283;22573;-78
2023/02/18 06:03:30;;;;;;;24.30;11.30;;;;;;;8.59;70.91;99296.91;106768;1277;22611;-78
2023/02/18 06:06:01;;;;;;;23.40;12.30;;;;;;;8.57;71.31;99305.75;106772;1277;23850;-78
2023/02/18 06:08:37;;;;;;;;;;;;;;;8.53;71.64;99303.72;106785;1280;24255;-78
2023/02/18 06:11:09;;;;;;;25.90;12.80;;;;;;;8.52;71.78;99307.70;106787;1261;22588;-79
2023/02/18 06:13:43;;;;;;;30.80;14.10;;;;;;;8.49;71.84;99308.27;106787;1283;25501;-79
2023/02/18 06:16:12;;;;;;;32.00;14.80;;;;;;;8.47;71.74;99315.89;106788;1284;22771;-79
2023/02/18 06:18:42;;;;;;;30.90;14.60;;;;;;;8.44;72.04;99304.87;106830;1278;24292;-78
2023/02/18 06:21:22;;;;;;;28.70;15.20;;;;;;;8.42;72.03;99303.70;106817;1277;22538;-78
2023/02/18 06:23:53;;;;;;;30.20;15.30;;;;;;;8.41;72.28;99309.23;106851;1282;22549;-79
2023/02/18 06:26:22;;;;;;;30.40;14.70;;;;;;;8.41;72.42;99311.81;106881;1283;22987;-79
2023/02/18 06:28:57;;;;;;;30.70;14.00;;;;;;;8.38;72.47;99315.63;106848;1284;22646;-79
2023/02/18 06:31:25;;;;;;;30.20;14.50;;;;;;;8.37;72.78;99315.64;106761;1266;23637;-79
2023/02/18 06:33:54;;;;;;;29.10;13.60;;;;;;;8.35;73.09;99309.80;106775;1284;22625;-79
2023/02/18 06:36:24;;;;;;;32.90;15.80;;;;;;;8.34;73.42;99305.48;106741;1283;22886;-79
2023/02/18 06:38:56;;;;;;;30.80;14.90;;;;;;;8.32;73.73;99305.00;106688;1283;22813;-80
2023/02/18 06:41:26;;;;;;;34.40;16.00;;;;;;;8.34;73.63;99314.30;106724;1280;22560;-79
2023/02/18 06:44:00;;;;;;;27.20;14.90;;;;;;;8.33;73.71;99313.79;106682;1284;22564;-79
2023/02/18 06:46:28;;;;;;;30.90;16.30;;;;;;;8.34;73.81;99325.70;106571;1271;22563;-79
2023/02/18 06:49:09;;;;;;;31.40;15.80;;;;;;;8.33;73.75;99319.31;106745;1277;25522;-78
2023/02/18 06:51:40;;;;;;;28.00;15.80;;;;;;;8.32;73.81;99323.98;107456;1277;22567;-79
2023/02/18 06:54:24;;;;;;;30.90;14.90;;;;;;;8.29;74.17;99329.05;106677;1284;24232;-79
2023/02/18 06:57:00;;;;;;;28.20;14.80;;;;;;;8.27;74.81;99332.87;106761;1283;22902;-79
2023/02/18 06:59:33;;;;;;;27.60;15.00;;;;;;;8.30;74.63;99326.44;106740;1272;23228;-79
2023/02/18 07:02:05;;;;;;;29.90;15.60;;;;;;;8.30;75.05;99324.73;106708;1283;22654;-79
2023/02/18 07:04:39;;;;;;;34.40;17.60;;;;;;;8.27;75.55;99320.95;106769;1284;23367;-81
2023/02/18 07:07:08;;;;;;;30.70;17.00;;;;;;;8.31;75.35;99316.92;106753;1270;25597;-78
2023/02/18 07:09:36;;;;;;;30.90;16.00;;;;;;;8.32;75.30;99311.05;106817;1284;24259;-79
2023/02/18 07:12:10;;;;;;;36.50;19.30;;;;;;;8.32;75.51;99316.58;106816;1284;22625;-79
2023/02/18 07:14:42;;;;;;;36.50;20.20;;;;;;;8.26;75.89;99314.21;106880;1284;22648;-79
2023/02/18 07:17:10;;;;;;;33.20;16.50;;;;;;;8.26;75.95;99312.16;106816;1277;23362;-78
2023/02/18 07:19:45;;;;;;;31.30;16.70;;;;;;;8.28;75.94;99316.61;106859;1284;22603;-81
2023/02/18 07:22:16;;;;;;;35.80;17.80;;;;;;;8.30;76.19;99313.14;106869;1276;22698;-79
2023/02/18 07:24:45;;;;;;;36.50;17.50;;;;;;;8.30;76.66;99314.17;106825;1283;25351;-81
2023/02/18 07:27:16;;;;;;;31.80;17.80;;;;;;;8.32;76.88;99322.10;106846;1283;22663;-79
2023/02/18 07:29:44;;;;;;;31.80;17.40;;;;;;;8.33;77.08;99336.77;106890;1284;22569;-78
2023/02/18 07:32:15;;;;;;;36.80;18.90;;;;;;;8.35;77.26;99337.94;106827;1283;22542;-79
2023/02/18 07:34:43;;;;;;;38.30;20.60;;;;;;;8.35;77.16;99338.30;106968;1283;25494;-78
2023/02/18 07:37:12;;;;;;;36.20;18.30;;;;;;;8.34;77.57;99341.40;106825;1276;23112;-79
2023/02/18 07:39:42;;;;;;;31.40;15.90;;;;;;;8.35;77.60;99326.03;106776;1283;23423;-79
2023/02/18 07:42:12;;;;;;;29.40;16.20;;;;;;;8.35;77.93;99321.02;106830;1283;22947;-79
2023/02/18 07:44:41;;;;;;;35.40;17.80;;;;;;;8.40;77.92;99323.73;106873;1280;23567;-79
2023/02/18 07:47:13;;;;;;;27.70;15.50;;;;;;;8.43;78.28;99323.72;107839;1283;22570;-78
2023/02/18 07:49:42;;;;;;;37.80;20.00;;;;;;;8.48;78.26;99328.14;107090;1283;22762;-79
2023/02/18 07:52:13;;;;;;;37.10;20.00;;;;;;;8.53;78.13;99328.26;106790;1283;22568;-78
2023/02/18 07:54:42;;;;;;;35.40;19.90;;;;;;;8.60;77.89;99331.45;106927;1260;22602;-81
2023/02/18 07:57:10;;;;;;;34.20;19.80;;;;;;;8.69;77.26;99336.34;106967;1277;23048;-79
2023/02/18 07:59:38;;;;;;;33.10;18.80;;;;;;;8.72;77.18;99333.36;106995;1283;26710;-79
2023/02/18 08:02:19;;;;;;;35.40;17.50;;;;;;;8.75;76.94;99332.63;106927;1283;22536;-78
2023/02/18 08:04:48;;;;;;;33.90;17.80;;;;;;;8.79;76.82;99322.21;106989;1283;24287;-79
2023/02/18 08:07:19;;;;;;;32.30;16.50;;;;;;;8.80;76.91;99321.16;106806;1283;25377;-78
2023/02/18 08:09:49;;;;;;;35.40;16.80;;;;;;;8.84;76.86;99311.41;108294;1260;22502;-79
2023/02/18 08:12:18;;;;;;;32.70;17.10;;;;;;;8.91;76.82;99314.94;109879;1283;22857;-79
2023/02/18 08:14:46;;;;;;;38.90;19.10;;;;;;;8.99;76.65;99312.58;109882;1283;22338;-80
2023/02/18 08:17:14;;;;;;;44.30;22.10;;;;;;;9.01;76.37;99307.20;109840;1284;22910;-77
2023/02/18 08:19:42;;;;;;;38.70;18.20;;;;;;;9.04;76.23;99306.11;107447;1283;25505;-80
2023/02/18 08:22:10;;;;;;;32.10;17.20;;;;;;;9.10;75.99;99303.95;106834;1283;24079;-79
2023/02/18 08:24:39;;;;;;;34.70;15.80;;;;;;;9.12;75.78;99305.63;106701;1274;23829;-79
2023/02/18 08:27:07;;;;;;;30.50;16.10;;;;;;;9.18;75.57;99297.25;106740;1283;22607;-78
2023/02/18 08:29:38;;;;;;;33.80;16.90;;;;;;;9.19;75.69;99297.55;106792;1283;24208;-79
2023/02/18 08:32:07;;;;;;;35.30;17.50;;;;;;;9.25;75.75;99291.76;106869;1283;24361;-79
2023/02/18 08:34:35;;;;;;;38.30;16.80;;;;;;;9.24;75.77;99286.40;106859;1283;22648;-78
2023/02/18 08:37:04;;;;;;;35.40;17.50;;;;;;;9.24;75.76;99286.08;106731;1283;22708;-78
2023/02/18 08:39:37;;;;;;;35.60;18.70;;;;;;;9.24;75.62;99289.89;106748;1283;22998;-79
2023/02/18 08:42:07;;;;;;;38.40;19.10;;;;;;;9.25;75.67;99292.30;106701;1283;24494;-81
2023/02/18 08:44:36;;;;;;;36.40;15.80;;;;;;;9.25;75.78;99300.93;106815;1283;22771;-78
2023/02/18 08:47:04;;;;;;;30.50;16.10;;;;;;;9.30;75.57;99310.52;109787;1283;22381;-80
2023/02/18 08:49:53;;;;;;;31.50;14.70;;;;;;;9.24;75.98;99312.00;108163;1283;23870;-80
2023/02/18 08:52:21;;;;;;;31.60;15.20;;;;;;;9.26;76.07;99325.30;106825;1283;24539;-80
2023/02/18 08:54:52;;;;;;;38.80;17.60;;;;;;;9.28;76.08;99323.19;106754;1283;22564;-78
2023/02/18 08:57:23;;;;;;;41.70;18.10;;;;;;;9.32;75.91;99337.65;106748;1283;22794;-78
2023/02/18 08:59:51;;;;;;;35.50;16.60;;;;;;;9.36;75.61;99338.97;106752;1283;22569;-78
2023/02/18 09:02:19;;;;;;;36.00;15.90;;;;;;;9.39;75.30;99336.16;106787;1283;22782;-78
2023/02/18 09:04:52;;;;;;;32.30;16.20;;;;;;;9.40;75.13;99329.91;106833;1283;22528;-78
2023/02/18 09:07:20;;;;;;;28.50;14.00;;;;;;;9.32;75.37;99327.97;106790;1269;25458;-79
2023/02/18 09:09:49;;;;;;;33.70;14.80;;;;;;;9.35;75.20;99330.52;106822;1283;25515;-78
2023/02/18 09:12:17;;;;;;;26.30;15.10;;;;;;;9.35;75.31;99332.08;106780;1283;25533;-78
2023/02/18 09:14:51;;;;;;;33.50;16.10;;;;;;;9.34;75.37;99335.89;106854;1283;22595;-80
2023/02/18 09:17:19;;;;;;;33.40;15.70;;;;;;;9.32;75.53;99340.92;106825;1283;22552;-79
2023/02/18 09:19:47;;;;;;;27.20;15.10;;;;;;;9.35;75.60;99333.97;106712;1283;22633;-79
2023/02/18 09:22:16;;;;;;;30.90;15.10;;;;;;;9.34;75.53;99344.71;106802;1283;23345;-78
2023/02/18 09:24:49;;;;;;;29.50;14.90;;;;;;;9.38;75.43;99351.92;106779;1283;24400;-78
2023/02/18 09:27:17;;;;;;;35.10;14.80;;;;;;;9.35;75.31;99352.30;106874;1283;22636;-81
2023/02/18 09:29:45;;;;;;;33.00;14.10;;;;;;;9.34;75.20;99355.78;106781;1283;24251;-80
2023/02/18 09:32:14;;;;;;;34.70;15.60;;;;;;;9.30;75.29;99354.80;106846;1276;23026;-79
2023/02/18 09:35:03;;;;;;;30.10;14.20;;;;;;;9.31;75.55;99345.80;106876;1283;25290;-78
2023/02/18 09:37:31;;;;;;;32.70;14.80;;;;;;;9.35;75.37;99336.56;106884;1276;22752;-79
2023/02/18 09:40:00;;;;;;;31.40;15.20;;;;;;;9.34;75.39;99332.61;106883;1283;23812;-78
2023/02/18 09:42:33;;;;;;;32.80;15.20;;;;;;;9.38;75.18;99338.42;106891;1276;25418;-78
2023/02/18 09:45:10;;;;;;;31.40;15.00;;;;;;;9.43;74.95;99342.15;106820;1276;25337;-78
2023/02/18 09:47:41;;;;;;;33.80;15.10;;;;;;;9.40;74.85;99338.21;107018;1273;25377;-79
2023/02/18 09:50:24;;;;;;;32.90;16.00;;;;;;;9.43;74.77;99335.41;106946;1283;22620;-79
2023/02/18 09:52:59;;;;;;;31.00;15.40;;;;;;;9.45;74.73;99334.32;106885;1277;24201;-79
2023/02/18 09:55:32;;;;;;;30.60;13.20;;;;;;;9.48;74.50;99330.12;106770;1283;25492;-79
2023/02/18 09:58:11;;;;;;;;;;;;;;;9.50;74.46;99325.92;109851;1283;22344;-79
2023/02/18 10:00:47;;;;;;;27.60;13.10;;;;;;;9.52;74.67;99320.19;109828;1283;22353;-81
2023/02/18 10:03:25;;;;;;;31.70;16.10;;;;;;;9.57;74.70;99322.71;108072;1283;22528;-78
2023/02/18 10:06:03;;;;;;;35.70;16.40;;;;;;;9.61;74.64;99321.26;106840;1268;22653;-79
2023/02/18 10:08:37;;;;;;;33.40;15.00;;;;;;;9.69;74.35;99323.36;106879;1283;22579;-79
2023/02/18 10:11:16;;;;;;;30.60;16.30;;;;;;;9.77;74.06;99319.39;106873;1283;22750;-78
2023/02/18 10:13:44;;;;;;;36.60;15.60;;;;;;;9.80;73.82;99324.36;106787;1283;25532;-79
2023/02/18 10:16:23;;;;;;;31.70;16.10;;;;;;;9.86;73.72;99319.59;106814;1280;22707;-79
2023/02/18 10:18:58;;;;;;;34.50;16.10;;;;;;;9.91;73.32;99305.13;106831;1283;24250;-81
2023/02/18 10:21:32;;;;;;;40.50;17.10;;;;;;;9.94;73.10;99304.38;108957;1283;23955;-79
2023/02/18 10:24:03;;;;;;;;;;;;;;;9.95;72.99;99297.77;106791;1283;22514;-79
2023/02/18 10:26:35;;;;;;;47.50;15.30;;;;;;;10.01;72.89;99298.70;106929;1276;22634;-79
2023/02/18 10:29:08;;;;;;;29.30;13.80;;;;;;;10.07;72.72;99301.02;106867;1276;25300;-80
2023/02/18 10:31:43;;;;;;;33.30;14.50;;;;;;;10.10;72.70;99292.98;106866;1278;22571;-84
2023/02/18 10:34:49;;;;;;;30.80;15.20;;;;;;;10.11;72.73;99291.06;106824;1283;22536;-79
2023/02/18 10:37:43;;;;;;;34.80;14.90;;;;;;;10.18;72.50;99287.63;106776;1277;22537;-79
2023/02/18 10:41:01;;;;;;;;;;;;;;;;;;;;;
2023/02/18 10:43:42;;;;;;;30.10;15.30;;;;;;;10.34;72.12;99285.94;106715;1283;22554;-78
2023/02/18 10:46:28;;;;;;;37.10;16.10;;;;;;;10.42;71.86;99276.58;106709;1277;25491;-79
2023/02/18 10:49:21;;;;;;;32.20;15.30;;;;;;;10.46;71.72;99269.55;106707;1283;22530;-78
2023/02/18 10:51:54;;;;;;;28.40;14.70;;;;;;;10.54;71.46;99260.73;106764;1277;24487;-79
2023/02/18 10:55:03;;;;;;;28.50;15.70;;;;;;;10.60;71.40;99253.14;106746;1283;22551;-80
2023/02/18 10:57:34;;;;;;;33.00;14.00;;;;;;;10.70;71.03;99255.01;106828;1283;22757;-79
2023/02/18 11:00:26;;;;;;;29.70;15.00;;;;;;;10.80;70.91;99264.29;106930;1283;22616;-80
2023/02/18 11:03:39;;;;;;;29.20;14.40;;;;;;;10.85;70.95;99265.56;106954;1283;22551;-79
2023/02/18 11:06:51;;;;;;;30.50;14.00;;;;;;;10.96;70.90;99263.60;106835;1283;22555;-79
2023/02/18 11:09:27;;;;;;;29.00;13.90;;;;;;;11.13;70.53;99271.83;106794;1268;24258;-79
2023/02/18 11:12:32;;;;;;;34.60;13.90;;;;;;;11.22;70.34;99272.13;108159;1283;24212;-79
2023/02/18 11:15:23;;;;;;;28.00;13.60;;;;;;;11.34;69.94;99267.85;106729;1283;22545;-79
2023/02/18 11:17:58;;;;;;;31.60;14.50;;;;;;;11.43;70.02;99272.83;109851;1283;22263;-79
2023/02/18 11:20:33;;;;;;;27.80;13.20;;;;;;;11.54;69.93;99272.88;109797;1284;22210;-79
2023/02/18 11:23:07;;;;;;;28.70;13.20;;;;;;;11.66;69.68;99278.14;108634;1272;22627;-79
2023/02/18 11:25:38;;;;;;;24.90;12.80;;;;;;;11.70;69.09;99273.49;106802;1283;22617;-78
2023/02/18 11:28:31;;;;;;;28.80;13.40;;;;;;;11.78;68.99;99272.95;106810;1260;22565;-79
2023/02/18 11:31:03;;;;;;;23.70;12.00;;;;;;;11.82;68.88;99268.50;106784;1283;25246;-78
2023/02/18 11:33:53;;;;;;;27.20;12.20;;;;;;;11.93;68.80;99263.02;108023;1283;25428;-79
2023/02/18 11:36:24;;;;;;;29.00;12.70;;;;;;;12.04;68.49;99255.08;106686;1283;22568;-79
2023/02/18 11:38:57;;;;;;;24.10;12.10;;;;;;;12.13;68.12;99259.33;106734;1283;23776;-79
2023/02/18 11:41:38;;;;;;;22.20;11.50;;;;;;;12.17;67.35;99252.27;106831;1283;25294;-79
2023/02/18 11:44:28;;;;;;;19.00;10.70;;;;;;;12.16;66.22;99259.41;106794;1283;25422;-80
2023/02/18 11:47:03;;;;;;;22.70;12.00;;;;;;;12.20;66.63;99249.73;106787;1283;23558;-79
2023/02/18 11:49:34;;;;;;;26.30;12.70;;;;;;;12.32;66.31;99249.40;106805;1283;22650;-80
2023/02/18 11:52:16;;;;;;;19.60;10.40;;;;;;;12.48;65.75;99238.64;106747;1283;23164;-78
2023/02/18 11:55:10;;;;;;;18.90;10.90;;;;;;;12.57;65.72;99236.64;106847;1283;25392;-79